Flight Track Log - Related Links

Times and Time Zones

All times are in EDT time to prevent confusion due to time zone crossing. See the MWT55 flight status page for this flight to view local times or setup timezone preferences in your user account.

Time Position Orientation Groundspeed Altitude Reporting Facility
EDT Latitude Longitude Course Direction KTS MPH feet Rate Location/Type
Fri 06:55:05 PM 39.9333 -105.1333 349° North 183 211 6,800  Level Denver TRACON
Fri 06:56:05 PM 40.0000 -105.1500 349° North 267 307 10,200 3,626 Climbing Denver TRACON
Fri 06:56:36 PM 40.0264 -105.1500 360° North 264 304 12,300 4,968 Climbing Denver Center
Fri 06:57:38 PM 40.0475 -105.2417 287° West 252 290 17,900 4,742 Climbing Denver Center
Fri 06:58:40 PM 40.0433 -105.3286 266° West 239 275 22,100 2,710 Climbing Denver Center
Fri 06:59:42 PM 40.0397 -105.4381 268° West 293 337 23,500 2,032 Climbing Denver Center
Fri 07:00:44 PM 40.0311 -105.5572 265° West 325 374 26,300 2,710 Climbing Denver Center
Fri 07:01:46 PM 40.0278 -105.6819 268° West 340 391 29,100 2,516 Climbing Denver Center
Fri 07:02:48 PM 40.0244 -105.8106 268° West 348 400 31,500 2,177 Climbing Denver Center
Fri 07:03:50 PM 40.0192 -105.9394 267° West 352 405 33,600 1,742 Climbing Denver Center
Fri 07:04:52 PM 40.0156 -106.0681 268° West 354 407 35,100 1,403 Climbing Denver Center
Fri 07:05:54 PM 40.0094 -106.2253 267° West 367 422 36,500 823 Climbing Denver Center
Fri 07:06:56 PM 40.0050 -106.3644 268° West 379 436 36,800 484 Climbing Denver Center
Fri 07:07:58 PM 40.0036 -106.5083 269° West 397 457 37,500 823 Climbing Denver Center
Fri 07:09:00 PM 40.0131 -106.6547 275° West 391 450 38,500 774 Climbing Denver Center
Fri 07:10:02 PM 40.0192 -106.7897 273° West 390 449 39,100 677 Climbing Denver Center
Fri 07:11:04 PM 40.0267 -106.9494 274° West 395 455 39,900 677 Climbing Denver Center
Fri 07:12:06 PM 40.0331 -107.0897 273° West 402 463 40,500 629 Climbing Denver Center
Fri 07:13:08 PM 40.0400 -107.2486 273° West 395 455 41,200 629 Climbing Denver Center
Fri 07:14:10 PM 40.0450 -107.3850 273° West 394 453 41,800 581 Climbing Denver Center
Fri 07:15:12 PM 40.0531 -107.5447 274° West 394 453 42,400 484 Climbing Denver Center
Fri 07:16:14 PM 40.0586 -107.6819 273° West 396 456 42,800 290 Climbing Denver Center
Fri 07:17:16 PM 40.0644 -107.8419 273° West 397 457 43,000 97 Climbing Denver Center
Fri 07:18:18 PM 40.0689 -107.9833 272° West 404 465 43,000  Level Denver Center
Fri 07:19:20 PM 40.0683 -108.1525 270° West 417 480 43,000 145 Level Denver Center
Fri 07:20:22 PM 40.0686 -108.2950 270° West 414 476 43,300 290 Climbing Denver Center
Fri 07:21:24 PM 40.0694 -108.4592 270° West 408 470 43,600 339 Climbing Denver Center
Fri 07:22:26 PM 40.0689 -108.6003 270° West 408 470 44,000 339 Climbing Denver Center
Fri 07:23:28 PM 40.0686 -108.7644 270° West 409 471 44,300 242 Climbing Denver Center
Fri 07:24:30 PM 40.0686 -108.9039 270° West 406 467 44,500 222 Climbing Denver Center
Fri 07:25:16 PM 40.0675 -109.0208 269° West 406 467 44,700 224 Climbing Salt Lake Center
Fri 07:26:17 PM 40.0664 -109.1594 269° West 403 464 44,900 231 Climbing Salt Lake Center
Fri 07:26:34 PM 40.0658 -109.2061 269° West 403 464 45,000 76 Climbing Denver Center
Fri 07:27:36 PM 40.0658 -109.3686 270° West 401 461 45,000  Level Denver Center
Fri 07:28:38 PM 40.0644 -109.5086 269° West 403 464 45,000  Level Denver Center
Fri 07:29:22 PM 40.0633 -109.6267 269° West 406 467 45,000  Level Salt Lake Center
Fri 07:30:24 PM 40.0622 -109.7664 269° West 404 465 45,000  Level Salt Lake Center
Fri 07:31:26 PM 40.0603 -109.9314 269° West 407 468 45,000  Level Salt Lake Center
Fri 07:32:28 PM 40.0592 -110.0717 269° West 406 467 45,000  Level Salt Lake Center
Fri 07:33:29 PM 40.0561 -110.2367 269° West 407 468 45,000  Level Salt Lake Center
Fri 07:34:31 PM 40.0542 -110.3775 269° West 406 467 45,000  Level Salt Lake Center
Fri 07:35:33 PM 40.0514 -110.5186 269° West 407 468 45,000  Level Salt Lake Center
Fri 07:36:35 PM 40.0486 -110.6825 269° West 405 466 45,000  Level Salt Lake Center
Fri 07:37:36 PM 40.0461 -110.8225 269° West 404 465 45,000  Level Salt Lake Center
Fri 07:38:38 PM 40.0431 -110.9856 269° West 402 463 45,000  Level Salt Lake Center
Fri 07:39:40 PM 40.0414 -111.1236 269° West 400 460 45,000  Level Salt Lake Center
Fri 07:40:42 PM 40.0369 -111.2881 268° West 404 465 45,000  Level Salt Lake Center
Fri 07:41:43 PM 40.0331 -111.4286 268° West 405 466 45,000  Level Salt Lake Center
Fri 07:42:45 PM 40.0281 -111.5681 267° West 403 464 45,000  Level Salt Lake Center
Fri 07:43:47 PM 40.0250 -111.7172 269° West 401 461 45,000 48 Level Salt Lake Center
Fri 07:44:49 PM 40.0211 -111.8642 268° West 405 466 45,100 146 Climbing Salt Lake Center
Fri 07:45:50 PM 40.0158 -112.0378 268° West 399 459 45,300 146 Climbing Salt Lake Center
Fri 07:46:52 PM 40.0114 -112.1811 268° West 396 456 45,400 145 Climbing Salt Lake Center
Fri 07:47:54 PM 40.0067 -112.3244 268° West 396 456 45,600 145 Climbing Salt Lake Center
Fri 07:48:56 PM 40.0022 -112.4678 268° West 396 456 45,700 145 Climbing Salt Lake Center
Fri 07:49:58 PM 39.9967 -112.6083 267° West 392 451 45,900 146 Climbing Salt Lake Center
Fri 07:50:59 PM 39.9928 -112.7483 268° West 387 445 46,000 146 Climbing Salt Lake Center
Fri 07:52:01 PM 39.9864 -112.8886 267° West 387 445 46,200 145 Climbing Salt Lake Center
Fri 07:53:03 PM 39.9817 -113.0272 267° West 384 442 46,300 145 Climbing Salt Lake Center
Fri 07:54:05 PM 39.9742 -113.1928 267° West 383 441 46,500 145 Climbing Salt Lake Center
Fri 07:55:07 PM 39.9689 -113.3314 267° West 384 442 46,600 146 Climbing Salt Lake Center
Fri 07:56:08 PM 39.9625 -113.4683 267° West 380 437 46,800 146 Climbing Salt Lake Center
Fri 07:57:10 PM 39.9569 -113.6067 267° West 383 441 46,900 97 Climbing Salt Lake Center
Fri 07:58:12 PM 39.9522 -113.7431 267° West 379 436 47,000 48 Climbing Salt Lake Center
Fri 07:59:14 PM 39.9453 -113.8808 266° West 381 438 47,000  Level Salt Lake Center
Fri 08:00:16 PM 39.9375 -114.0475 267° West 386 444 47,000  Level Salt Lake Center
Fri 08:01:18 PM 39.9303 -114.1878 266° West 388 447 47,000  Level Salt Lake Center
Fri 08:02:19 PM 39.9236 -114.3286 267° West 390 449 47,000  Level Salt Lake Center
Fri 08:03:21 PM 39.9164 -114.4669 266° West 386 444 47,000  Level Salt Lake Center
Fri 08:04:23 PM 39.9092 -114.6058 266° West 386 444 47,000  Level Salt Lake Center
Fri 08:05:25 PM 39.8997 -114.7647 266° West 390 449 47,000  Level Salt Lake Center
Fri 08:06:26 PM 39.8928 -114.8989 266° West 390 449 47,000  Level Salt Lake Center
Fri 08:07:28 PM 39.8856 -115.0328 266° West 388 447 47,000  Level Salt Lake Center
Fri 08:08:30 PM 39.8756 -115.1911 265° West 391 450 47,000  Level Salt Lake Center
Fri 08:09:31 PM 39.8689 -115.3253 266° West 389 448 47,000  Level Salt Lake Center
Fri 08:10:33 PM 39.8575 -115.4856 265° West 397 457 47,000  Level Salt Lake Center
Fri 08:11:35 PM 39.8492 -115.6194 265° West 391 450 47,000  Level Salt Lake Center
Fri 08:12:37 PM 39.8383 -115.7800 265° West 395 455 47,000  Level Salt Lake Center
Fri 08:13:38 PM 39.8306 -115.9142 266° West 390 449 47,000  Level Salt Lake Center
Fri 08:14:40 PM 39.8222 -116.0506 265° West 393 452 47,000  Level Salt Lake Center
Fri 08:15:42 PM 39.8117 -116.2061 265° West 389 448 47,000  Level Salt Lake Center
Fri 08:16:43 PM 39.8033 -116.3408 265° West 389 448 47,000  Level Salt Lake Center
Fri 08:17:45 PM 39.7922 -116.4992 265° West 393 452 47,000  Level Salt Lake Center
Fri 08:18:47 PM 39.7828 -116.6336 265° West 390 449 47,000  Level Salt Lake Center
Fri 08:19:49 PM 39.7731 -116.7678 265° West 389 448 47,000  Level Salt Lake Center
Fri 08:20:50 PM 39.7614 -116.9250 265° West 389 448 47,000  Level Salt Lake Center
Fri 08:21:52 PM 39.7522 -117.0614 265° West 393 452 47,000  Level Salt Lake Center
Fri 08:22:54 PM 39.7400 -117.2186 264° West 390 449 47,000  Level Salt Lake Center
Fri 08:23:56 PM 39.7300 -117.3528 265° West 390 449 47,000  Level Salt Lake Center
Fri 08:24:57 PM 39.7186 -117.5031 264° West 391 450 47,000  Level Salt Lake Center
Fri 08:25:59 PM 39.7081 -117.6444 265° West 395 455 47,000  Level Salt Lake Center
Fri 08:27:10 PM 39.6933 -117.8167 264° West 398 458 47,000  Level Oakland Center
Fri 08:28:12 PM 39.6825 -117.9589 264° West 398 458 47,000  Level Oakland Center
Fri 08:29:13 PM 39.6708 -118.1011 264° West 398 458 47,000  Level Oakland Center
Fri 08:30:15 PM 39.6586 -118.2447 264° West 401 461 47,000 -195 Level Oakland Center
Fri 08:31:16 PM 39.6464 -118.3875 264° West 401 461 46,600 -1,082 Descending Oakland Center
Fri 08:32:17 PM 39.6311 -118.5531 263° West 389 448 44,800 -1,659 Descending Oakland Center
Fri 08:33:19 PM 39.6203 -118.6847 264° West 375 432 43,200 -1,659 Descending Oakland Center
Fri 08:34:20 PM 39.6083 -118.8164 263° West 373 429 41,400 -2,293 Descending Oakland Center
Fri 08:35:22 PM 39.5964 -118.9508 263° West 379 436 38,500 -2,683 Descending Oakland Center
Fri 08:36:23 PM 39.5850 -119.0797 263° West 362 417 35,900 -2,585 Descending Oakland Center
Fri 08:37:25 PM 39.5736 -119.2006 263° West 341 392 33,200 -2,634 Descending Oakland Center
Fri 08:38:26 PM 39.5608 -119.3278 263° West 355 409 30,500 -3,197 Descending Oakland Center
Fri 08:39:27 PM 39.5458 -119.4964 263° West 395 455 26,700 -3,463 Descending Oakland Center
Fri 08:40:29 PM 39.5150 -119.6356 254° West 420 483 23,400 -3,525 Descending Oakland Center
Fri 08:40:47 PM 39.4833 -119.6667 217° Southwest 447 514 22,000 -2,692 Descending Northern Cal TRACON
Fri 08:41:47 PM 39.3833 -119.7333 207° Southwest 416 479 19,900 -2,600 Descending Northern Cal TRACON
Fri 08:42:47 PM 39.2833 -119.7833 201° Southwest 360 414 16,800 -2,943 Descending Northern Cal TRACON
Fri 08:43:33 PM 39.2275 -119.8331 215° Southwest 372 428 14,700 -2,739 Descending Oakland Center

Login

Don't have an account? Register now (free) for customized features, flight alerts, and more!